createdAt,value
2019-03-06T00:01:57.594Z,100.00
2019-03-06T00:07:01.646Z,100.00
2019-03-06T00:12:05.695Z,100.00
2019-03-06T00:17:10.013Z,100.00
2019-03-06T00:22:14.117Z,100.00
2019-03-06T00:27:18.197Z,100.00
2019-03-06T00:32:22.211Z,100.00
2019-03-06T00:37:26.276Z,98.86
2019-03-06T00:42:30.301Z,98.45
2019-03-06T00:47:34.414Z,98.98
2019-03-06T00:52:38.796Z,98.56
2019-03-06T00:57:42.908Z,99.55
2019-03-06T01:02:46.979Z,100.00
2019-03-06T01:07:51.885Z,100.00
2019-03-06T01:12:55.896Z,100.00
2019-03-06T01:18:00.237Z,100.00
2019-03-06T01:23:04.377Z,100.00
2019-03-06T01:28:08.474Z,100.00
2019-03-06T01:33:14.395Z,100.00
2019-03-06T01:38:18.689Z,100.00
2019-03-06T01:43:22.768Z,100.00
2019-03-06T01:48:26.862Z,100.00
2019-03-06T01:53:30.896Z,100.00
2019-03-06T01:58:34.918Z,100.00
2019-03-06T02:03:39.141Z,100.00
2019-03-06T02:08:43.158Z,100.00
2019-03-06T02:13:47.213Z,100.00
2019-03-06T02:18:51.333Z,100.00
2019-03-06T02:23:55.735Z,100.00
2019-03-06T02:28:59.781Z,100.00
2019-03-06T02:34:03.909Z,100.00
2019-03-06T02:39:08.090Z,100.00
2019-03-06T02:44:12.109Z,100.00
2019-03-06T02:49:16.156Z,100.00
2019-03-06T02:54:20.219Z,100.00
2019-03-06T02:59:24.340Z,100.00
2019-03-06T03:04:28.367Z,100.00
2019-03-06T03:09:32.448Z,100.00
2019-03-06T03:14:36.479Z,100.00
2019-03-06T03:19:40.497Z,100.00
2019-03-06T03:24:44.561Z,100.00
2019-03-06T03:29:48.909Z,100.00
2019-03-06T03:34:53.248Z,100.00
2019-03-06T03:39:57.282Z,100.00
2019-03-06T03:45:01.292Z,100.00
2019-03-06T03:50:05.755Z,100.00
2019-03-06T03:55:10.113Z,100.00
2019-03-06T04:00:14.330Z,100.00
2019-03-06T04:05:18.360Z,100.00
2019-03-06T04:10:22.392Z,100.00
2019-03-06T04:15:26.424Z,100.00
2019-03-06T04:20:30.468Z,100.00
2019-03-06T04:25:34.559Z,100.00
2019-03-06T04:30:38.676Z,100.00
2019-03-06T04:35:42.770Z,100.00
2019-03-06T04:40:46.832Z,100.00
2019-03-06T04:45:50.920Z,100.00
2019-03-06T04:50:55.060Z,100.00
2019-03-06T04:55:59.116Z,100.00
2019-03-06T05:01:03.153Z,100.00
2019-03-06T05:06:07.231Z,100.00
2019-03-06T05:11:11.325Z,100.00
2019-03-06T05:16:15.649Z,100.00
2019-03-06T05:21:19.976Z,100.00
2019-03-06T05:26:24.087Z,100.00
2019-03-06T05:31:28.459Z,100.00
2019-03-06T05:37:23.470Z,100.00
2019-03-06T05:42:27.513Z,100.00
2019-03-06T05:47:31.600Z,100.00
2019-03-06T05:52:35.693Z,100.00
2019-03-06T05:57:39.693Z,100.00
2019-03-06T06:02:43.830Z,100.00
2019-03-06T06:07:47.912Z,100.00
2019-03-06T06:12:52.040Z,100.00
2019-03-06T06:17:57.082Z,100.00
2019-03-06T06:23:01.203Z,100.00
2019-03-06T06:28:07.023Z,100.00
2019-03-06T06:33:11.026Z,100.00
2019-03-06T06:38:15.031Z,100.00
2019-03-06T06:43:19.470Z,100.00
2019-03-06T06:48:24.417Z,100.00
2019-03-06T06:53:52.439Z,100.00
2019-03-06T06:59:29.289Z,100.00
2019-03-06T07:04:58.165Z,100.00
2019-03-06T07:10:02.204Z,100.00
2019-03-06T07:15:06.900Z,100.00
2019-03-06T07:20:11.068Z,100.00
2019-03-06T07:25:15.289Z,100.00
2019-03-06T07:30:19.584Z,100.00
2019-03-06T07:35:48.630Z,100.00
2019-03-06T07:40:52.663Z,97.88
2019-03-06T07:45:56.705Z,95.33
2019-03-06T07:51:00.760Z,95.85
2019-03-06T07:56:04.819Z,96.44
2019-03-06T08:01:16.801Z,95.57
2019-03-06T08:06:14.781Z,95.27
2019-03-06T08:11:18.919Z,94.83
2019-03-06T08:16:22.931Z,93.95
2019-03-06T08:21:26.998Z,91.60
2019-03-06T08:26:31.048Z,88.13
2019-03-06T08:31:35.056Z,84.11
2019-03-06T08:36:39.071Z,82.34
2019-03-06T08:41:43.638Z,81.24
2019-03-06T08:46:47.657Z,83.09
2019-03-06T08:51:51.720Z,80.55
2019-03-06T08:56:56.074Z,80.30
2019-03-06T09:02:01.200Z,80.45
2019-03-06T09:07:05.472Z,78.97
2019-03-06T09:12:10.159Z,80.43
2019-03-06T09:17:14.313Z,78.42
2019-03-06T09:22:18.338Z,76.06
2019-03-06T09:27:22.644Z,75.83
2019-03-06T09:32:26.819Z,73.92
2019-03-06T09:37:30.858Z,72.28
2019-03-06T09:42:34.993Z,70.08
2019-03-06T09:47:39.671Z,69.55
2019-03-06T09:52:44.113Z,69.74
2019-03-06T09:57:51.321Z,68.59
2019-03-06T10:02:56.147Z,64.94
2019-03-06T10:08:00.810Z,64.94
2019-03-06T10:13:05.611Z,65.13
2019-03-06T10:18:10.372Z,57.41
2019-03-06T10:23:15.068Z,56.44
2019-03-06T10:28:27.489Z,54.86
2019-03-06T10:33:25.466Z,51.99
2019-03-06T10:38:31.155Z,50.12
2019-03-06T10:43:35.373Z,52.08
2019-03-06T10:48:39.438Z,50.71
2019-03-06T10:53:43.676Z,49.80
2019-03-06T10:58:48.050Z,48.44
2019-03-06T11:03:52.170Z,47.46
2019-03-06T11:08:57.159Z,49.58
2019-03-06T11:14:11.923Z,47.30
2019-03-06T11:19:16.398Z,47.38
2019-03-06T11:24:20.651Z,47.04
2019-03-06T11:29:25.391Z,48.34
2019-03-06T11:34:30.773Z,47.48
2019-03-06T11:39:45.149Z,48.31
2019-03-06T11:44:49.575Z,46.82
2019-03-06T11:49:54.199Z,47.64
2019-03-06T11:55:06.179Z,45.31
2019-03-06T12:00:09.990Z,45.80
2019-03-06T12:05:14.389Z,49.58
2019-03-06T12:10:19.612Z,49.18
2019-03-06T12:15:23.599Z,49.31
2019-03-06T12:20:27.636Z,49.21
2019-03-06T12:25:31.961Z,47.99
2019-03-06T12:30:37.359Z,49.78
2019-03-06T12:35:41.385Z,49.13
2019-03-06T12:40:45.389Z,48.68
2019-03-06T12:46:08.934Z,49.35
2019-03-06T12:51:12.934Z,49.50
2019-03-06T12:56:18.114Z,52.05
2019-03-06T13:01:22.192Z,49.53
2019-03-06T13:06:26.237Z,49.38
2019-03-06T13:11:30.255Z,49.03
2019-03-06T13:16:34.349Z,50.36
2019-03-06T13:21:38.533Z,49.37
2019-03-06T13:26:42.610Z,49.66
2019-03-06T13:31:46.644Z,49.46
2019-03-06T13:36:50.653Z,49.26
2019-03-06T13:41:55.125Z,51.37
2019-03-06T13:46:59.235Z,52.58
2019-03-06T13:52:04.309Z,53.48
2019-03-06T13:57:08.964Z,54.24
2019-03-06T14:02:14.221Z,55.13
2019-03-06T14:07:20.547Z,55.22
2019-03-06T14:12:26.721Z,54.64
2019-03-06T14:17:34.076Z,54.05
2019-03-06T14:22:40.726Z,54.23
2019-03-06T14:27:47.190Z,54.39
2019-03-06T14:32:53.600Z,54.69
2019-03-06T14:37:57.679Z,55.14
2019-03-06T14:43:04.029Z,55.90
2019-03-06T14:48:10.084Z,55.88
2019-03-06T14:53:18.061Z,55.73
2019-03-06T14:58:22.392Z,56.61
2019-03-06T15:03:28.321Z,57.59
2019-03-06T15:08:35.087Z,57.33
2019-03-06T15:13:42.235Z,56.77
2019-03-06T15:18:48.266Z,57.05
2019-03-06T15:23:52.973Z,57.74
2019-03-06T15:28:58.580Z,56.33
2019-03-06T15:34:04.609Z,56.54
2019-03-06T15:39:42.599Z,56.70
2019-03-06T15:44:41.446Z,56.93
2019-03-06T15:49:47.852Z,57.54
2019-03-06T15:54:53.675Z,58.66
2019-03-06T16:00:00.007Z,58.76
2019-03-06T16:05:07.516Z,59.56
2019-03-06T16:10:12.208Z,60.24
2019-03-06T16:15:16.450Z,60.55
2019-03-06T16:20:21.631Z,60.71
2019-03-06T16:25:36.050Z,61.30
2019-03-06T16:30:32.414Z,62.09
2019-03-06T16:35:36.614Z,62.14
2019-03-06T16:40:41.477Z,62.04
2019-03-06T16:45:46.142Z,63.02
2019-03-06T16:50:50.320Z,63.39
2019-03-06T16:55:54.727Z,64.09
2019-03-06T17:00:59.018Z,64.01
2019-03-06T17:06:03.650Z,63.78
2019-03-06T17:11:09.569Z,64.74
2019-03-06T17:16:14.529Z,64.58
2019-03-06T17:21:18.995Z,65.02
2019-03-06T17:26:23.524Z,65.33
2019-03-06T17:31:27.866Z,65.11
2019-03-06T17:36:31.874Z,65.11
2019-03-06T17:41:36.139Z,64.92
2019-03-06T17:46:40.369Z,64.37
2019-03-06T17:51:44.979Z,64.92
2019-03-06T17:56:49.273Z,66.01
2019-03-06T18:01:53.325Z,66.86
2019-03-06T18:06:57.381Z,65.62
2019-03-06T18:12:01.404Z,65.92
2019-03-06T18:17:05.494Z,65.70
2019-03-06T18:22:09.943Z,65.70
2019-03-06T18:27:14.269Z,65.45
2019-03-06T18:32:18.431Z,64.98
2019-03-06T18:37:22.787Z,64.57
2019-03-06T18:42:26.886Z,64.91
2019-03-06T18:47:30.973Z,65.08
2019-03-06T18:52:35.233Z,65.08
2019-03-06T18:57:39.315Z,64.60
2019-03-06T19:02:43.330Z,64.60
2019-03-06T19:07:49.280Z,64.13
2019-03-06T19:12:53.983Z,63.64
2019-03-06T19:17:58.120Z,63.99
2019-03-06T19:23:04.293Z,63.90
2019-03-06T19:28:11.876Z,63.90
2019-03-06T19:33:18.079Z,63.97
2019-03-06T19:38:24.112Z,64.23
2019-03-06T19:43:40.642Z,64.13
2019-03-06T19:48:47.426Z,63.09
2019-03-06T19:53:53.318Z,63.09
2019-03-06T19:58:59.510Z,62.63
2019-03-06T20:04:05.872Z,62.36
2019-03-06T20:09:27.387Z,62.51
2019-03-06T20:14:34.790Z,62.52
2019-03-06T20:19:42.129Z,61.65
2019-03-06T20:24:52.129Z,61.38
2019-03-06T20:30:01.003Z,61.15
2019-03-06T20:35:07.474Z,60.86
2019-03-06T20:40:18.283Z,60.36
2019-03-06T20:45:28.677Z,60.34
2019-03-06T20:50:35.829Z,59.85
2019-03-06T20:55:39.968Z,60.05
2019-03-06T21:00:45.800Z,60.28
2019-03-06T21:05:50.868Z,60.61
2019-03-06T21:11:24.342Z,59.49
2019-03-06T21:16:33.699Z,59.15
2019-03-06T21:21:42.824Z,58.94
2019-03-06T21:26:51.191Z,58.94
2019-03-06T21:31:58.348Z,59.67
2019-03-06T21:37:02.994Z,59.55
2019-03-06T21:42:07.162Z,60.81
2019-03-06T21:47:11.559Z,60.60
2019-03-06T21:52:15.966Z,61.76
2019-03-06T21:57:20.095Z,61.71
2019-03-06T22:02:24.329Z,61.70
2019-03-06T22:07:28.913Z,61.70
2019-03-06T22:12:33.404Z,62.05
2019-03-06T22:17:38.656Z,62.62
2019-03-06T22:22:42.779Z,62.07
2019-03-06T22:27:46.828Z,62.07
2019-03-06T22:32:50.875Z,62.38
2019-03-06T22:37:57.278Z,62.69
2019-03-06T22:43:00.944Z,62.82
2019-03-06T22:48:05.264Z,63.02
2019-03-06T22:53:09.627Z,63.67
2019-03-06T22:58:13.664Z,64.16
2019-03-06T23:03:19.056Z,64.51
2019-03-06T23:08:23.137Z,64.17
2019-03-06T23:13:27.254Z,64.43
2019-03-06T23:18:31.676Z,65.98
2019-03-06T23:23:36.134Z,65.39
2019-03-06T23:28:40.153Z,65.01
2019-03-06T23:33:44.503Z,66.76
2019-03-06T23:38:48.830Z,68.41
2019-03-06T23:43:52.834Z,69.41
2019-03-06T23:48:56.932Z,69.71
2019-03-06T23:54:01.041Z,70.45
2019-03-06T23:59:05.104Z,71.04
